LIEE/CAG METAR and TAF weather

Enter ICAO airport designator
Station Type Date Time Source
LIEE METAR 2023/01/30 11:50 UTC NOAA

LIEE 301150Z 35014KT CAVOK 13/05 Q1024


Station Type Date Time Source
LIEE Decoded METAR 2023/01/30 11:50 UTC NOAA

Cagliari / Elmas, Italy (LIEE) 39-15N 009-04E 5M
Jan 30, 2023 - 06:50 AM EST / 2023.01.30 1150 UTC
Wind: from the N (350 degrees) at 16 MPH (14 KT):0
Visibility: greater than 7 mile(s):0
Temperature: 55 F (13 C)
Dew Point: 41 F (5 C)
Relative Humidity: 58%
Pressure (altimeter): 30.24 in. Hg (1024 hPa)
ob: LIEE 301150Z 35014KT CAVOK 13/05 Q1024
cycle: 12

Station Type Date Time Source
LIEE TAF 2023/01/30 12:21 UTC NOAA

TAF LIEE 301100Z 3012/3112 32012KT 9999 SCT030

Example: see airport list